Time;durP1;ratioP1;P1;durP2;ratioP2;P2;SDS_P1;SDS_P2;PMS_P1;PMS_P2;Temp;Humidity;BMP_temperature;BMP_pressure;BME280_temperature;BME280_humidity;BME280_pressure;Samples;Min_cycle;Max_cycle;Signal;HPM_P1;HPM_P2
2022/07/20 00:02:22;;;;;;;8.37;6.20;;;;;;;25.79;39.03;158005.03;4992344;28;20433;-80
2022/07/20 00:04:50;;;;;;;9.37;5.63;;;;;;;25.84;39.05;158018.19;4991438;28;20538;-80
2022/07/20 00:07:16;;;;;;;5.97;5.37;;;;;;;25.77;38.85;157999.81;4992563;28;20448;-80
2022/07/20 00:12:29;;;;;;;6.90;5.80;;;;;;;25.74;39.50;157993.28;4992701;28;20434;-80
2022/07/20 00:14:56;;;;;;;9.60;5.87;;;;;;;25.74;39.51;157991.97;4991326;28;20552;-80
2022/07/20 00:17:23;;;;;;;8.10;6.03;;;;;;;25.71;39.51;157984.09;4995851;28;20830;-80
2022/07/20 00:19:49;;;;;;;6.30;5.67;;;;;;;25.70;39.42;157981.50;4978680;28;20564;-80
2022/07/20 00:22:16;;;;;;;7.57;5.60;;;;;;;25.72;39.63;157988.06;4996168;28;20545;-80
2022/07/20 00:24:43;;;;;;;8.70;5.30;;;;;;;25.63;39.31;157963.19;4978768;28;20441;-80
2022/07/20 00:27:10;;;;;;;9.80;5.90;;;;;;;25.62;39.92;157960.56;4978649;28;20564;-80
2022/07/20 00:29:38;;;;;;;6.73;5.30;;;;;;;25.64;39.62;157965.78;4978587;28;20480;-80
2022/07/20 00:32:05;;;;;;;6.40;5.80;;;;;;;25.63;39.85;157963.19;4978209;28;20496;-80
2022/07/20 00:34:31;;;;;;;6.77;5.80;;;;;;;25.68;39.29;157977.56;4995980;28;20512;-80
2022/07/20 00:36:58;;;;;;;7.70;5.30;;;;;;;25.60;39.21;157955.34;4996058;28;20457;-80
2022/07/20 00:39:25;;;;;;;6.27;5.40;;;;;;;25.57;39.36;157948.78;4978560;28;20452;-80
2022/07/20 00:41:51;;;;;;;8.67;5.13;;;;;;;25.55;39.54;157942.25;4978185;28;20484;-80
2022/07/20 00:44:18;;;;;;;5.73;5.13;;;;;;;25.51;39.73;157931.75;4994684;28;20535;-80
2022/07/20 00:46:47;;;;;;;6.43;5.20;;;;;;;25.49;39.58;157926.53;4995202;28;20548;-80
2022/07/20 00:49:14;;;;;;;8.57;5.50;;;;;;;25.43;40.12;157913.41;4978320;28;20941;-81
2022/07/20 00:51:43;;;;;;;7.43;5.50;;;;;;;25.44;39.96;157916.00;4995477;28;20438;-80
2022/07/20 00:54:10;;;;;;;7.27;5.50;;;;;;;25.40;39.93;157904.22;4978484;28;20955;-80
2022/07/20 00:56:38;;;;;;;9.27;5.33;;;;;;;25.36;40.13;157893.78;4978223;28;20438;-80
2022/07/20 00:59:07;;;;;;;5.43;4.93;;;;;;;25.37;40.03;157896.38;4978075;28;20779;-80
2022/07/20 01:01:34;;;;;;;6.53;4.93;;;;;;;25.32;40.18;157884.59;4993863;28;20477;-80
2022/07/20 01:04:03;;;;;;;7.50;5.97;;;;;;;25.23;40.20;157861.03;4977462;28;20442;-80
2022/07/20 01:06:30;;;;;;;6.67;4.90;;;;;;;25.18;40.40;157846.63;4978116;28;20858;-80
2022/07/20 01:08:57;;;;;;;6.97;4.97;;;;;;;25.20;40.33;157853.22;4995101;28;20426;-80
2022/07/20 01:11:24;;;;;;;9.80;5.77;;;;;;;25.14;40.35;157837.50;4995176;28;20441;-80
2022/07/20 01:13:51;;;;;;;6.57;5.60;;;;;;;25.09;40.78;157824.41;4977965;28;20446;-81
2022/07/20 01:16:18;;;;;;;6.10;5.50;;;;;;;25.11;40.64;157829.63;4978012;28;20469;-80
2022/07/20 01:18:45;;;;;;;6.57;5.20;;;;;;;25.10;40.44;157827.00;4993972;28;20441;-81
2022/07/20 01:21:13;;;;;;;6.60;6.00;;;;;;;25.06;40.94;157816.56;4994881;28;20482;-80
2022/07/20 01:23:40;;;;;;;8.50;5.00;;;;;;;24.98;41.09;157795.63;4995477;28;20430;-81
2022/07/20 01:26:07;;;;;;;6.40;5.70;;;;;;;24.96;41.27;157790.41;4995026;28;20813;-80
2022/07/20 01:28:33;;;;;;;5.30;4.80;;;;;;;25.03;40.99;157808.69;4976813;28;20449;-80
2022/07/20 01:31:00;;;;;;;5.97;5.13;;;;;;;24.92;41.09;157779.91;4994768;28;20430;-80
2022/07/20 01:33:27;;;;;;;8.80;4.60;;;;;;;25.05;40.91;157813.91;4977729;28;20484;-80
2022/07/20 01:35:53;;;;;;;7.73;5.40;;;;;;;24.91;41.50;157776.00;4995090;28;20461;-80
2022/07/20 01:38:22;;;;;;;5.53;4.60;;;;;;;24.83;41.72;157756.38;4977019;28;20869;-80
2022/07/20 01:40:48;;;;;;;6.63;4.80;;;;;;;24.79;41.52;157745.88;4977219;28;20572;-80
2022/07/20 01:43:15;;;;;;;6.63;5.47;;;;;;;24.89;41.60;157772.03;4977336;28;20489;-80
2022/07/20 01:45:42;;;;;;;6.60;5.50;;;;;;;24.89;41.57;157770.78;4977336;28;20430;-80
2022/07/20 01:48:09;;;;;;;6.43;5.00;;;;;;;24.85;41.57;157761.59;4994548;28;20540;-80
2022/07/20 01:50:36;;;;;;;7.87;5.80;;;;;;;24.88;41.47;157769.47;4994440;28;20819;-80
2022/07/20 01:53:02;;;;;;;5.57;4.77;;;;;;;24.76;41.72;157737.97;4977279;28;20445;-80
2022/07/20 01:55:30;;;;;;;5.50;5.00;;;;;;;24.71;42.21;157726.22;4976983;28;20441;-80
2022/07/20 01:57:57;;;;;;;5.70;4.97;;;;;;;24.75;41.89;157735.41;4994710;28;20955;-80
2022/07/20 02:00:24;;;;;;;6.13;5.53;;;;;;;24.71;42.06;157724.91;4976798;28;20519;-80
2022/07/20 02:02:51;;;;;;;5.93;5.43;;;;;;;24.59;42.23;157694.84;4993203;28;20445;-80
2022/07/20 02:05:19;;;;;;;6.90;5.37;;;;;;;24.50;42.51;157669.97;4957283;28;20471;-80
2022/07/20 02:07:46;;;;;;;5.67;5.17;;;;;;;24.55;42.52;157683.03;4957418;28;20438;-80
2022/07/20 02:10:15;;;;;;;6.10;5.50;;;;;;;24.54;42.37;157680.47;4974905;28;20463;-80
2022/07/20 02:12:43;;;;;;;7.00;4.97;;;;;;;24.49;42.67;157667.38;4957009;28;20449;-80
2022/07/20 02:15:11;;;;;;;5.50;4.47;;;;;;;24.37;43.02;157637.28;4994269;28;20556;-80
2022/07/20 02:17:38;;;;;;;6.53;4.77;;;;;;;24.36;43.01;157633.38;4994364;28;20480;-81
2022/07/20 02:20:06;;;;;;;5.60;4.40;;;;;;;24.34;43.01;157629.44;4993862;28;20905;-80
2022/07/20 02:22:33;;;;;;;5.13;4.67;;;;;;;24.37;42.98;157635.97;4994021;28;20557;-80
2022/07/20 02:25:00;;;;;;;7.03;5.03;;;;;;;24.33;43.12;157625.53;4976445;28;20765;-80
2022/07/20 02:27:27;;;;;;;5.67;5.07;;;;;;;24.25;43.56;157604.59;4976451;28;20509;-80
2022/07/20 02:29:55;;;;;;;7.20;5.07;;;;;;;24.23;43.33;157601.97;4959846;28;20975;-80
2022/07/20 02:32:22;;;;;;;5.47;4.93;;;;;;;24.38;43.35;157638.59;4976118;28;20644;-80
2022/07/20 02:34:48;;;;;;;6.60;6.00;;;;;;;24.27;43.44;157609.81;4993833;28;20438;-80
2022/07/20 02:37:15;;;;;;;7.93;5.37;;;;;;;24.17;43.83;157586.25;4992708;28;21004;-80
2022/07/20 02:39:42;;;;;;;6.00;5.10;;;;;;;24.19;43.37;157590.22;4992901;28;20522;-80
2022/07/20 02:42:09;;;;;;;5.40;4.90;;;;;;;24.20;43.23;157594.09;4976198;28;20485;-80
2022/07/20 02:44:35;;;;;;;6.43;5.20;;;;;;;24.18;43.65;157588.91;4993161;28;20434;-81
2022/07/20 02:47:04;;;;;;;5.40;4.90;;;;;;;24.07;43.56;157560.06;4992888;28;20457;-80
2022/07/20 02:49:30;;;;;;;5.93;5.33;;;;;;;23.98;44.11;157536.56;4975440;28;20438;-80
2022/07/20 02:51:57;;;;;;;9.47;5.40;;;;;;;23.93;43.88;157523.47;4975598;28;20458;-80
2022/07/20 02:54:24;;;;;;;5.30;4.80;;;;;;;24.01;43.81;157544.34;4975694;28;20486;-80
2022/07/20 02:56:51;;;;;;;4.93;4.30;;;;;;;24.01;44.02;157543.09;4976013;28;20948;-80
2022/07/20 02:59:17;;;;;;;6.00;5.03;;;;;;;23.90;44.31;157514.31;4975441;28;20480;-80
2022/07/20 03:01:44;;;;;;;6.27;4.87;;;;;;;23.88;44.09;157509.09;4975216;28;20477;-80
2022/07/20 03:04:12;;;;;;;5.60;4.90;;;;;;;23.84;44.40;157498.63;5000435;28;20457;-80
2022/07/20 03:06:39;;;;;;;6.50;5.30;;;;;;;23.82;44.24;157494.72;4993377;28;20983;-80
2022/07/20 03:09:06;;;;;;;6.77;4.60;;;;;;;23.81;44.46;157492.06;4993234;28;20440;-80
2022/07/20 03:11:32;;;;;;;6.50;5.23;;;;;;;23.76;44.37;157479.00;4993136;28;20780;-80
2022/07/20 03:13:59;;;;;;;6.57;4.70;;;;;;;23.71;44.78;157465.94;4993308;28;20477;-80
2022/07/20 03:16:26;;;;;;;6.33;5.13;;;;;;;23.69;45.07;157460.72;4993103;28;20429;-80
2022/07/20 03:18:52;;;;;;;9.93;5.50;;;;;;;23.63;45.08;157446.34;4993356;28;20512;-81
2022/07/20 03:21:20;;;;;;;6.00;5.17;;;;;;;23.57;44.85;157429.31;4992726;28;20475;-81
2022/07/20 03:23:48;;;;;;;5.30;4.73;;;;;;;23.51;45.30;157414.94;4975329;28;20500;-80
2022/07/20 03:26:15;;;;;;;5.97;5.37;;;;;;;23.47;45.25;157403.19;4991469;28;20418;-76
2022/07/20 03:28:42;;;;;;;6.60;5.73;;;;;;;23.41;45.13;157387.50;4989979;28;20421;-75
2022/07/20 03:31:09;;;;;;;6.00;5.50;;;;;;;23.41;45.75;157387.50;4970833;28;20442;-75
2022/07/20 03:33:35;;;;;;;9.10;5.57;;;;;;;23.35;45.70;157371.78;4989877;28;20437;-74
2022/07/20 03:36:02;;;;;;;6.97;4.60;;;;;;;23.35;45.43;157371.78;4973017;28;20496;-75
2022/07/20 03:38:30;;;;;;;5.50;5.00;;;;;;;23.33;45.95;157366.53;4973264;28;20538;-74
2022/07/20 03:40:57;;;;;;;5.23;4.73;;;;;;;23.39;45.75;157382.28;4989842;28;20513;-74
2022/07/20 03:43:25;;;;;;;7.60;5.10;;;;;;;23.45;45.98;157397.97;4990415;28;20474;-74
2022/07/20 03:45:52;;;;;;;5.60;5.00;;;;;;;23.46;45.46;157400.56;4991652;28;20434;-75
2022/07/20 03:48:19;;;;;;;5.93;4.57;;;;;;;23.32;45.77;157365.25;4992588;28;20906;-74
2022/07/20 03:50:46;;;;;;;7.90;4.93;;;;;;;23.22;46.35;157339.06;4975145;28;20440;-75
2022/07/20 03:53:12;;;;;;;7.43;5.43;;;;;;;23.20;46.32;157332.53;4995851;28;20445;-75
2022/07/20 03:55:41;;;;;;;6.10;5.50;;;;;;;23.20;46.19;157332.53;4978337;28;20536;-74
2022/07/20 03:58:07;;;;;;;5.40;4.80;;;;;;;23.20;46.08;157332.53;4996207;28;20444;-74
2022/07/20 04:00:34;;;;;;;6.00;5.37;;;;;;;23.19;46.24;157331.28;4978537;28;20455;-74
2022/07/20 04:03:01;;;;;;;7.20;4.60;;;;;;;23.18;46.47;157327.34;4967813;28;20461;-74
2022/07/20 04:05:28;;;;;;;5.40;4.90;;;;;;;23.19;46.41;157329.97;4958948;28;20449;-74
2022/07/20 04:07:54;;;;;;;5.90;5.30;;;;;;;23.19;46.42;157331.28;4976341;28;20444;-75
2022/07/20 04:10:21;;;;;;;9.10;5.60;;;;;;;23.19;46.72;157329.97;4981052;28;20444;-74
2022/07/20 04:12:49;;;;;;;5.60;5.10;;;;;;;23.18;46.57;157327.34;4978256;28;20441;-74
2022/07/20 04:15:16;;;;;;;6.40;4.63;;;;;;;23.20;46.30;157332.53;4978304;28;20480;-75
2022/07/20 04:17:42;;;;;;;7.00;5.33;;;;;;;23.23;46.55;157340.41;4995711;28;20778;-75
2022/07/20 04:20:11;;;;;;;7.23;5.37;;;;;;;23.28;46.27;157353.47;4978105;28;20958;-75
2022/07/20 04:22:37;;;;;;;6.10;4.87;;;;;;;23.24;46.54;157344.34;4977636;28;20524;-74
2022/07/20 04:25:05;;;;;;;6.17;5.40;;;;;;;23.25;46.45;157345.63;4978126;28;20442;-75
2022/07/20 04:27:31;;;;;;;8.70;5.23;;;;;;;23.27;46.51;157350.88;4977245;28;20487;-75
2022/07/20 04:29:59;;;;;;;5.83;5.20;;;;;;;23.31;46.40;157361.31;4961647;28;20449;-75
2022/07/20 04:32:28;;;;;;;6.30;5.30;;;;;;;23.38;46.40;157380.97;4994973;28;20442;-75
2022/07/20 04:34:54;;;;;;;8.20;5.50;;;;;;;23.54;46.82;157421.47;4977783;28;20436;-75
2022/07/20 04:37:21;;;;;;;9.53;5.20;;;;;;;23.75;45.99;157475.13;4977564;28;20492;-75
2022/07/20 04:39:48;;;;;;;5.60;5.00;;;;;;;23.97;46.21;157532.59;4995338;28;20430;-75
2022/07/20 04:42:15;;;;;;;6.20;5.20;;;;;;;24.23;45.75;157601.97;4977087;28;20492;-75
2022/07/20 04:44:42;;;;;;;5.97;5.23;;;;;;;24.47;44.64;157662.13;4994998;28;20434;-74
2022/07/20 04:47:10;;;;;;;7.43;5.60;;;;;;;24.61;45.11;157698.75;4977473;28;20512;-74
2022/07/20 04:49:37;;;;;;;5.37;4.87;;;;;;;24.83;44.22;157756.38;4977590;28;20442;-74
2022/07/20 04:52:03;;;;;;;5.60;4.97;;;;;;;24.97;43.86;157793.00;4977064;28;20548;-74
2022/07/20 04:54:30;;;;;;;6.60;5.27;;;;;;;25.12;43.59;157830.97;4977458;28;20438;-75
2022/07/20 04:56:57;;;;;;;6.30;4.83;;;;;;;25.23;43.80;157861.03;4994553;28;20730;-75
2022/07/20 04:59:24;;;;;;;6.93;5.63;;;;;;;25.47;42.90;157921.31;4977348;28;20445;-74
2022/07/20 05:01:50;;;;;;;5.60;4.57;;;;;;;25.63;42.95;157964.47;4975814;28;20495;-74
2022/07/20 05:04:18;;;;;;;6.30;5.40;;;;;;;25.80;42.82;158007.69;4994149;28;20840;-74
2022/07/20 05:06:45;;;;;;;6.03;5.30;;;;;;;25.72;42.41;157988.06;4976998;28;20453;-74
2022/07/20 05:09:12;;;;;;;9.63;5.73;;;;;;;25.80;42.61;158009.00;4993363;28;20460;-73
2022/07/20 05:11:40;;;;;;;7.40;5.50;;;;;;;25.55;43.08;157943.53;4976691;28;20473;-74
2022/07/20 05:14:08;;;;;;;6.87;6.17;;;;;;;25.43;43.20;157913.41;4993421;28;20473;-74
2022/07/20 05:16:35;;;;;;;8.53;6.00;;;;;;;25.46;43.55;157920.00;4994384;28;20422;-74
2022/07/20 05:19:02;;;;;;;6.67;5.87;;;;;;;25.37;43.56;157897.69;4994685;28;20449;-75
2022/07/20 05:21:30;;;;;;;8.60;5.93;;;;;;;25.48;43.47;157923.91;4993895;28;20520;-76
2022/07/20 05:23:57;;;;;;;7.30;6.27;;;;;;;25.60;43.48;157955.34;4976617;28;20441;-74
2022/07/20 05:26:24;;;;;;;9.00;6.90;;;;;;;25.71;43.20;157984.09;4993929;28;20470;-75
2022/07/20 05:28:51;;;;;;;7.77;6.33;;;;;;;25.82;43.08;158012.91;4994239;28;20538;-75
2022/07/20 05:31:18;;;;;;;7.07;6.37;;;;;;;26.01;42.25;158062.66;4994185;28;20768;-75
2022/07/20 05:33:45;;;;;;;6.17;5.67;;;;;;;25.82;42.67;158014.22;4976662;28;20924;-73
2022/07/20 05:36:12;;;;;;;6.87;6.27;;;;;;;25.80;43.47;158007.69;4976621;28;20434;-75
2022/07/20 05:38:40;;;;;;;8.17;6.23;;;;;;;25.82;43.47;158012.91;4990976;28;20547;-75
2022/07/20 05:41:07;;;;;;;7.50;6.80;;;;;;;25.86;43.72;158023.41;4976763;28;20529;-75
2022/07/20 05:43:34;;;;;;;9.17;6.40;;;;;;;25.99;43.76;158057.44;4997158;28;20514;-74
2022/07/20 05:46:01;;;;;;;9.20;5.93;;;;;;;26.12;43.38;158091.47;5012034;28;20417;-74
2022/07/20 05:48:28;;;;;;;8.93;6.80;;;;;;;26.29;43.33;158136.03;4993787;28;20547;-74
2022/07/20 05:50:54;;;;;;;8.07;6.27;;;;;;;26.59;42.81;158214.63;5011318;28;20424;-74
2022/07/20 05:53:21;;;;;;;6.80;6.10;;;;;;;26.86;42.52;158284.09;4998119;28;20863;-74
2022/07/20 05:55:49;;;;;;;7.50;6.37;;;;;;;27.00;41.67;158319.47;4998075;28;20525;-74
2022/07/20 05:58:16;;;;;;;7.97;6.30;;;;;;;27.28;42.13;158391.50;4993626;28;20947;-74
2022/07/20 06:00:43;;;;;;;10.00;7.10;;;;;;;27.56;40.72;158466.25;5011738;28;20529;-76
2022/07/20 06:03:10;;;;;;;6.30;5.60;;;;;;;28.01;41.03;158581.63;4991582;28;20820;-74
2022/07/20 06:05:36;;;;;;;7.40;6.63;;;;;;;28.42;40.32;158689.19;4993449;28;20478;-75
2022/07/20 06:08:04;;;;;;;6.80;5.93;;;;;;;28.77;39.72;158781.03;4991944;28;20462;-75
2022/07/20 06:10:33;;;;;;;7.43;6.53;;;;;;;29.01;38.95;158842.69;4974673;28;20450;-75
2022/07/20 06:13:01;;;;;;;8.23;6.67;;;;;;;29.25;39.27;158905.72;4992193;28;20528;-75
2022/07/20 06:15:28;;;;;;;6.60;5.90;;;;;;;29.52;38.40;158976.53;4993107;28;20432;-77
2022/07/20 06:17:55;;;;;;;7.20;6.60;;;;;;;29.62;38.35;159001.50;4993457;28;20450;-77
2022/07/20 06:20:23;;;;;;;8.83;6.97;;;;;;;29.74;37.84;159032.97;4992208;28;20438;-77
2022/07/20 06:22:50;;;;;;;7.67;6.87;;;;;;;29.95;37.63;159088.13;4991704;28;20481;-77
2022/07/20 06:25:18;;;;;;;10.30;6.97;;;;;;;29.98;37.63;159094.69;4991806;28;20540;-77
2022/07/20 06:27:45;;;;;;;9.60;6.97;;;;;;;30.20;36.56;159152.47;4993138;28;20576;-77
2022/07/20 06:30:14;;;;;;;8.70;7.87;;;;;;;30.41;36.19;159206.31;4993020;28;20426;-77
2022/07/20 06:32:41;;;;;;;8.10;7.30;;;;;;;30.31;36.47;159180.03;4975387;28;20441;-77
2022/07/20 06:35:08;;;;;;;8.43;7.53;;;;;;;30.23;36.17;159160.34;4992988;28;20524;-77
2022/07/20 06:37:34;;;;;;;13.23;8.13;;;;;;;30.43;36.37;159211.56;4975654;28;20446;-77
2022/07/20 06:40:01;;;;;;;8.77;7.20;;;;;;;30.61;36.22;159258.81;4975398;28;20484;-77
2022/07/20 06:42:28;;;;;;;9.00;6.90;;;;;;;30.98;35.75;159356.06;4992887;28;20571;-78
2022/07/20 06:44:55;;;;;;;10.77;7.30;;;;;;;31.22;35.91;159419.09;4992529;28;20533;-77
2022/07/20 06:47:23;;;;;;;8.17;7.43;;;;;;;31.32;35.59;159445.34;4992769;28;20461;-78
2022/07/20 06:49:50;;;;;;;8.43;7.57;;;;;;;31.53;35.63;159498.00;4992724;28;20500;-78
2022/07/20 06:52:17;;;;;;;7.70;7.00;;;;;;;31.64;36.30;159526.91;4964703;28;20865;-78
2022/07/20 06:54:43;;;;;;;8.67;7.40;;;;;;;31.44;35.42;159474.28;4991318;28;20448;-78
2022/07/20 06:57:10;;;;;;;9.17;7.10;;;;;;;31.60;35.38;159516.38;4976952;28;20532;-78
2022/07/20 06:59:38;;;;;;;10.13;7.70;;;;;;;31.83;35.03;159576.78;5012005;28;20441;-78
2022/07/20 07:02:05;;;;;;;11.77;7.13;;;;;;;32.10;34.33;159646.47;4975177;28;20501;-78
2022/07/20 07:07:35;;;;;;;9.73;7.67;;;;;;;32.65;33.33;159789.78;4991352;28;20437;-78
2022/07/20 07:10:02;;;;;;;12.43;7.90;;;;;;;32.81;33.74;159831.84;4990643;28;20536;-78
2022/07/20 07:12:28;;;;;;;11.73;8.43;;;;;;;33.10;33.30;159908.16;4989378;28;20817;-78
2022/07/20 07:14:55;;;;;;;8.37;7.23;;;;;;;33.10;34.21;159908.16;4991589;28;20902;-78
2022/07/20 07:17:22;;;;;;;10.33;8.40;;;;;;;33.28;33.24;159955.50;4992561;28;20446;-78
2022/07/20 07:19:50;;;;;;;8.60;7.70;;;;;;;33.45;33.24;160000.22;4974843;28;20536;-78
2022/07/20 07:22:17;;;;;;;9.37;8.17;;;;;;;33.31;33.03;159963.38;4974671;28;20481;-78
2022/07/20 07:24:43;;;;;;;8.80;8.10;;;;;;;33.30;32.84;159960.78;4991931;28;20434;-78
2022/07/20 07:27:10;;;;;;;9.60;8.03;;;;;;;33.43;33.09;159994.97;4991955;28;20469;-78
2022/07/20 07:29:37;;;;;;;7.80;7.03;;;;;;;33.82;32.10;160096.28;4974698;28;20477;-78
2022/07/20 07:32:03;;;;;;;8.30;7.60;;;;;;;34.01;32.76;160144.97;4974638;28;20503;-78
2022/07/20 07:34:30;;;;;;;10.73;8.00;;;;;;;34.09;32.23;160167.41;4991959;28;20430;-78
2022/07/20 07:36:58;;;;;;;10.93;8.50;;;;;;;34.26;31.48;160210.81;4992367;28;20447;-78
2022/07/20 07:39:25;;;;;;;9.70;7.93;;;;;;;34.11;32.23;160171.31;4974545;28;20445;-78
2022/07/20 07:41:52;;;;;;;9.70;8.33;;;;;;;34.52;31.13;160279.25;4974505;28;20433;-78
2022/07/20 07:44:18;;;;;;;10.70;8.27;;;;;;;34.39;31.58;160243.72;4991976;28;20519;-79
2022/07/20 07:46:45;;;;;;;9.27;8.37;;;;;;;34.39;32.15;160243.72;4992321;28;20437;-79
2022/07/20 07:49:12;;;;;;;8.07;7.20;;;;;;;34.42;31.71;160252.88;4974733;28;20840;-79
2022/07/20 07:51:39;;;;;;;9.40;7.77;;;;;;;34.48;31.47;160268.69;4958397;28;20492;-79
2022/07/20 07:54:07;;;;;;;8.87;7.60;;;;;;;34.64;31.12;160309.53;4991743;28;20496;-79
2022/07/20 07:56:34;;;;;;;12.10;7.97;;;;;;;34.96;30.88;160392.44;4974433;28;20507;-79
2022/07/20 07:59:00;;;;;;;9.90;8.10;;;;;;;35.01;31.09;160406.94;4974596;28;20438;-79
2022/07/20 08:01:27;;;;;;;8.23;7.43;;;;;;;35.13;30.68;160438.59;4991625;28;20839;-78
2022/07/20 08:03:54;;;;;;;10.00;7.67;;;;;;;35.30;31.14;160482.00;4990666;28;20476;-79
2022/07/20 08:06:21;;;;;;;9.93;7.83;;;;;;;35.07;30.36;160421.47;4990534;28;20476;-79
2022/07/20 08:08:47;;;;;;;9.63;8.73;;;;;;;34.92;30.55;160381.94;4974468;28;20539;-79
2022/07/20 08:11:17;;;;;;;11.40;7.80;;;;;;;34.96;29.84;160393.78;4992204;28;20424;-79
2022/07/20 08:13:43;;;;;;;8.17;7.47;;;;;;;34.56;30.84;160288.47;4991759;28;20551;-79
2022/07/20 08:16:10;;;;;;;8.77;7.97;;;;;;;34.57;31.47;160291.13;4991834;28;20433;-79
2022/07/20 08:18:37;;;;;;;8.97;8.07;;;;;;;35.17;30.29;160449.09;4991982;28;20443;-79
2022/07/20 08:21:03;;;;;;;8.37;7.63;;;;;;;35.01;30.52;160405.59;4991709;28;20470;-79
2022/07/20 08:23:30;;;;;;;8.43;7.70;;;;;;;35.10;30.14;160429.38;4973882;28;20491;-79
2022/07/20 08:25:57;;;;;;;11.47;10.10;;;;;;;35.21;30.48;160459.66;4973896;28;20539;-79
2022/07/20 08:28:25;;;;;;;10.60;9.50;;;;;;;35.45;30.37;160522.81;4974365;28;20480;-79
2022/07/20 08:30:53;;;;;;;9.27;8.20;;;;;;;35.46;29.93;160525.47;4991825;28;20472;-79
2022/07/20 08:33:20;;;;;;;8.50;7.70;;;;;;;35.01;30.55;160405.59;4991830;28;20436;-79
2022/07/20 08:35:47;;;;;;;7.70;7.00;;;;;;;35.38;30.31;160503.06;4974084;28;20875;-79
2022/07/20 08:38:13;;;;;;;8.07;7.40;;;;;;;35.73;30.09;160595.31;4993554;28;20893;-79
2022/07/20 08:40:40;;;;;;;9.67;8.83;;;;;;;36.07;30.12;160683.56;4995019;28;20425;-78
2022/07/20 08:43:07;;;;;;;13.00;8.80;;;;;;;36.31;29.88;160745.47;4977199;28;21107;-79
2022/07/20 08:45:36;;;;;;;9.47;7.30;;;;;;;36.47;29.89;160787.63;4977421;28;20859;-79
2022/07/20 08:48:06;;;;;;;11.20;8.17;;;;;;;36.79;29.51;160872.00;4995593;28;20441;-79
2022/07/20 08:50:33;;;;;;;9.00;7.73;;;;;;;36.78;29.56;160869.34;4977455;28;20425;-79
2022/07/20 08:53:00;;;;;;;9.53;8.73;;;;;;;36.58;29.90;160816.66;4995089;28;20842;-79
2022/07/20 08:55:27;;;;;;;10.37;8.93;;;;;;;36.50;29.42;160796.91;4977587;28;20425;-79
2022/07/20 08:57:54;;;;;;;8.00;7.30;;;;;;;36.75;28.49;160860.16;4977546;28;20808;-79
2022/07/20 09:00:22;;;;;;;8.00;7.27;;;;;;;37.21;27.70;160982.75;4976628;28;20488;-79
2022/07/20 09:02:51;;;;;;;7.73;7.03;;;;;;;36.79;29.19;160870.69;4993437;28;20480;-79
2022/07/20 09:05:20;;;;;;;9.57;8.20;;;;;;;36.92;29.25;160906.25;4977298;28;20426;-79
2022/07/20 09:07:48;;;;;;;9.40;7.20;;;;;;;36.93;29.14;160908.91;4994649;28;20441;-79
2022/07/20 09:10:17;;;;;;;8.33;7.63;;;;;;;37.18;28.50;160973.50;4977407;28;20512;-79
2022/07/20 09:12:55;;;;;;;8.83;8.03;;;;;;;37.12;27.86;160959.00;4960801;28;20507;-79
2022/07/20 09:15:35;;;;;;;8.43;7.83;;;;;;;36.62;29.23;160828.50;4977030;28;20476;-79
2022/07/20 09:18:08;;;;;;;9.20;7.43;;;;;;;37.05;28.57;160939.25;4977049;28;20441;-79
2022/07/20 09:20:37;;;;;;;8.40;7.60;;;;;;;37.30;27.93;161003.81;4977193;28;20531;-77
2022/07/20 09:23:05;;;;;;;7.93;7.10;;;;;;;37.14;28.05;160964.31;4992944;28;20472;-77
2022/07/20 09:25:32;;;;;;;8.40;7.63;;;;;;;37.37;28.36;161023.59;4994155;28;20933;-79
2022/07/20 09:28:00;;;;;;;8.27;7.20;;;;;;;37.37;27.78;161022.25;4994499;28;20500;-79
2022/07/20 09:30:27;;;;;;;9.87;7.33;;;;;;;37.82;27.91;161140.94;4994232;28;20465;-79
2022/07/20 09:32:57;;;;;;;12.70;8.37;;;;;;;37.74;27.84;161119.84;4976388;28;20448;-79
2022/07/20 09:35:27;;;;;;;8.80;8.00;;;;;;;37.17;28.60;160972.16;4994049;28;20445;-79
2022/07/20 09:37:56;;;;;;;11.17;8.23;;;;;;;36.58;29.35;160816.66;4993138;28;20456;-79
2022/07/20 09:40:24;;;;;;;8.30;7.60;;;;;;;36.19;28.86;160713.88;4994114;28;20192;-79
2022/07/20 09:42:51;;;;;;;9.07;8.37;;;;;;;36.42;28.14;160775.78;4993930;28;20469;-79
2022/07/20 09:45:23;;;;;;;9.67;8.77;;;;;;;36.40;27.30;160770.53;4994286;28;20442;-79
2022/07/20 09:48:11;;;;;;;11.73;8.60;;;;;;;36.43;27.64;160778.41;4994237;28;20437;-79
2022/07/20 09:50:40;;;;;;;10.97;9.17;;;;;;;36.39;28.11;160766.56;4971826;28;20551;-79
2022/07/20 09:53:08;;;;;;;17.40;9.40;;;;;;;36.39;27.21;160766.56;4976041;28;20995;-79
2022/07/20 09:55:37;;;;;;;8.87;7.93;;;;;;;36.30;27.90;160742.88;4976346;28;21020;-79
2022/07/20 09:58:04;;;;;;;9.37;8.60;;;;;;;36.04;27.11;160675.66;4976540;28;20445;-79
2022/07/20 10:00:31;;;;;;;11.40;8.90;;;;;;;36.02;27.96;160671.72;4975994;28;20857;-79
2022/07/20 10:02:59;;;;;;;13.13;9.03;;;;;;;35.82;27.43;160618.97;4991886;28;20480;-79
2022/07/20 10:05:30;;;;;;;10.07;9.00;;;;;;;36.02;27.23;160670.41;4960227;28;20443;-79
2022/07/20 10:08:01;;;;;;;9.20;8.33;;;;;;;36.03;27.89;160674.34;4993568;28;20453;-79
2022/07/20 10:10:28;;;;;;;9.30;8.60;;;;;;;35.86;28.17;160629.53;4976280;28;20440;-79
2022/07/20 10:12:56;;;;;;;11.23;8.47;;;;;;;35.69;27.18;160584.75;4975690;28;20449;-79
2022/07/20 10:15:27;;;;;;;9.33;8.63;;;;;;;35.60;27.61;160561.06;4992547;28;20544;-79
2022/07/20 10:17:54;;;;;;;12.70;9.00;;;;;;;36.05;27.43;160678.31;4993548;28;20456;-79
2022/07/20 10:20:32;;;;;;;11.13;8.60;;;;;;;36.52;26.87;160800.84;4992172;28;20531;-79
2022/07/20 10:23:29;;;;;;;9.47;8.67;;;;;;;37.07;26.98;160944.50;4991580;28;20512;-79
2022/07/20 10:25:57;;;;;;;11.80;8.80;;;;;;;36.88;27.27;160895.75;4993347;28;20433;-79
2022/07/20 10:28:28;;;;;;;10.37;9.07;;;;;;;36.42;26.85;160775.78;4993526;28;20480;-79
2022/07/20 10:30:56;;;;;;;9.33;8.53;;;;;;;36.05;27.07;160678.31;4993005;28;20529;-79
2022/07/20 10:33:24;;;;;;;9.70;8.70;;;;;;;35.78;27.39;160608.47;4975203;28;20460;-79
2022/07/20 10:35:52;;;;;;;11.00;8.60;;;;;;;35.69;27.21;160584.75;4975933;28;20429;-78
2022/07/20 10:38:19;;;;;;;10.80;9.07;;;;;;;35.39;27.35;160507.03;4959644;28;20873;-79
2022/07/20 10:44:25;;;;;;;9.33;8.63;;;;;;;35.00;28.06;160403.00;4974669;28;20483;-78
2022/07/20 10:46:51;;;;;;;9.87;9.07;;;;;;;35.08;27.91;160424.13;4990959;28;20483;-78
2022/07/20 10:49:18;;;;;;;9.40;7.70;;;;;;;35.32;28.42;160488.59;4991436;28;20476;-79
2022/07/20 10:51:46;;;;;;;11.43;8.80;;;;;;;35.33;28.31;160489.91;4975876;28;20650;-79
2022/07/20 10:54:34;;;;;;;9.50;8.70;;;;;;;35.60;27.68;160559.75;4955168;28;21078;-79
2022/07/20 10:57:04;;;;;;;9.80;8.80;;;;;;;35.15;27.61;160442.53;4955374;28;20497;-79
2022/07/20 10:59:30;;;;;;;12.20;8.83;;;;;;;35.00;28.29;160403.00;4975330;28;20475;-79
2022/07/20 11:01:57;;;;;;;14.23;9.30;;;;;;;34.86;29.23;160368.78;4957633;28;20450;-78
2022/07/20 11:04:24;;;;;;;10.03;9.13;;;;;;;34.68;28.82;160321.41;4985556;28;20575;-78
2022/07/20 11:06:50;;;;;;;10.17;9.27;;;;;;;34.57;28.88;160292.44;4989656;28;20445;-78
2022/07/20 11:09:17;;;;;;;14.27;10.30;;;;;;;34.48;29.11;160267.38;4975288;28;20477;-79
2022/07/20 11:11:44;;;;;;;9.47;8.67;;;;;;;34.60;29.19;160300.34;4982958;28;20480;-78
2022/07/20 11:14:14;;;;;;;11.20;10.20;;;;;;;34.50;28.77;160273.94;4992118;28;20540;-78
2022/07/20 11:16:41;;;;;;;9.93;9.13;;;;;;;34.54;29.08;160284.50;4991052;28;20546;-78
2022/07/20 11:19:07;;;;;;;10.90;9.80;;;;;;;34.81;29.30;160355.63;4991897;28;20456;-79
2022/07/20 11:21:38;;;;;;;9.87;9.07;;;;;;;34.82;29.16;160358.22;4974571;28;20500;-78
2022/07/20 11:24:06;;;;;;;11.00;9.97;;;;;;;34.86;28.47;160368.78;4974453;28;20473;-79
2022/07/20 11:26:32;;;;;;;11.83;9.90;;;;;;;35.08;28.93;160424.13;4974685;28;20481;-79
2022/07/20 11:29:00;;;;;;;9.17;8.30;;;;;;;35.35;28.62;160495.16;4992231;28;20520;-79
2022/07/20 11:31:29;;;;;;;9.30;8.53;;;;;;;35.07;28.64;160421.47;4992145;28;20430;-79
2022/07/20 11:33:57;;;;;;;10.60;9.70;;;;;;;34.86;28.83;160368.78;4974054;28;20438;-78
2022/07/20 11:36:26;;;;;;;9.90;9.00;;;;;;;34.92;29.50;160381.94;4992149;28;20425;-78